Voyager Of The Seas — C6SE5 — position and weather

sailwx.info

Track history (hours):
 
Tides and Currents Weather Stations Pressure Air Temp Water Temp Dewpoint Dewpoint Depression Visibility Wind Speed Wind Dir Waves Ship Positions

Voyager Of The Seas

Operator: Royal Caribbean Cruises Ltd

Last reported at 2016-Jun-24 01:04 UTC. Time now 2016-Jun-25 12:17 UTC.
Position N 16°12' E 108°21'.

Type: Passenger vessel. MMSI: 311317000.

Date/timePositionNaut miles runAvg speedWind from/ knotsBaromVisibWave heightAir tempDewpointWater temp
2016-Jun-24 01:04N 16°12' E 108°21'1020.1
2016-Jun-24 00:33N 16°04' E 108°28'  
2016-Jun-21 09:27N 22°10' E 114°21'1112.0
2016-Jun-21 08:33N 22°18' E 114°13'0 0.0
2016-Jun-21 07:33N 22°18' E 114°13'0 0.0
2016-Jun-21 06:33N 22°18' E 114°13'0 0.0
2016-Jun-21 04:33N 22°18' E 114°13'0 0.1
2016-Jun-21 03:33N 22°18' E 114°13'0 0.0
2016-Jun-21 02:33N 22°18' E 114°13'0 0.0
2016-Jun-21 01:33N 22°18' E 114°13'0 0.0
2016-Jun-21 00:33N 22°18' E 114°13'0 0.3
2016-Jun-20 23:33N 22°18' E 114°13'9 9.1
2016-Jun-20 22:32N 22°14' E 114°22'  
2016-Jun-17 18:29N 24°33' E 119°20'2119.3
2016-Jun-17 17:24N 24°26' E 118°58'1619.2
2016-Jun-17 16:33N 24°19' E 118°42'1918.7
2016-Jun-17 15:34N 24°13' E 118°22'1616.2
2016-Jun-17 14:33N 24°22' E 118°08'8 7.3
2016-Jun-17 13:32N 24°29' E 118°04'0 0.0
2016-Jun-17 12:32N 24°29' E 118°04'0 0.0
2016-Jun-17 11:32N 24°29' E 118°04'0 0.0
2016-Jun-17 10:32N 24°29' E 118°04'0 0.0
2016-Jun-17 09:32N 24°29' E 118°04'0 0.0
2016-Jun-17 08:32N 24°29' E 118°04'0 0.0
2016-Jun-17 07:07N 24°29' E 118°04'0 0.0
2016-Jun-17 06:32N 24°29' E 118°04'0 0.0
2016-Jun-17 05:32N 24°29' E 118°04'0 0.0
2016-Jun-17 04:31N 24°29' E 118°04'0 0.0
2016-Jun-17 03:31N 24°29' E 118°04'0 0.0
2016-Jun-17 02:26N 24°29' E 118°04'6 7.0
2016-Jun-17 01:33N 24°24' E 118°07'1716.5
2016-Jun-17 00:33N 24°11' E 118°18'1614.9
2016-Jun-16 23:29N 23°56' E 118°13'23317.7
2016-Jun-16 10:20N 22°13' E 114°26'1114.3
2016-Jun-16 09:33N 22°17' E 114°15'2 2.4
2016-Jun-16 08:33N 22°18' E 114°13'0 0.0
2016-Jun-16 07:33N 22°18' E 114°13'0 0.0
2016-Jun-16 06:33N 22°18' E 114°13'0 0.0
2016-Jun-16 05:33N 22°18' E 114°13'0 0.0
2016-Jun-16 04:33N 22°18' E 114°13'0 0.0
2016-Jun-16 01:33N 22°18' E 114°13'0 0.0
2016-Jun-16 00:33N 22°18' E 114°13'2 2.0
2016-Jun-15 23:33N 22°17' E 114°14'  
Track history (hours):
 
Tides and Currents Weather Stations Pressure Air Temp Water Temp Dewpoint Dewpoint Depression Visibility Wind Speed Wind Dir Waves Ship Positions

Voyager Of The Seas

Operator: Royal Caribbean Cruises Ltd

Last reported at 2016-Jun-24 01:04 UTC. Time now 2016-Jun-25 12:17 UTC.
Position N 16°12' E 108°21'.

Type: Passenger vessel. MMSI: 311317000.

Date/timePositionNaut miles runAvg speedWind from/ knotsBaromVisibWave heightAir tempDewpointWater temp
2016-Jun-24 01:04N 16°12' E 108°21'1020.1
2016-Jun-24 00:33N 16°04' E 108°28'  
2016-Jun-21 09:27N 22°10' E 114°21'1112.0
2016-Jun-21 08:33N 22°18' E 114°13'0 0.0
2016-Jun-21 07:33N 22°18' E 114°13'0 0.0
2016-Jun-21 06:33N 22°18' E 114°13'0 0.0
2016-Jun-21 04:33N 22°18' E 114°13'0 0.1
2016-Jun-21 03:33N 22°18' E 114°13'0 0.0
2016-Jun-21 02:33N 22°18' E 114°13'0 0.0
2016-Jun-21 01:33N 22°18' E 114°13'0 0.0
2016-Jun-21 00:33N 22°18' E 114°13'0 0.3
2016-Jun-20 23:33N 22°18' E 114°13'9 9.1
2016-Jun-20 22:32N 22°14' E 114°22'  
2016-Jun-17 18:29N 24°33' E 119°20'2119.3
2016-Jun-17 17:24N 24°26' E 118°58'1619.2
2016-Jun-17 16:33N 24°19' E 118°42'1918.7
2016-Jun-17 15:34N 24°13' E 118°22'1616.2
2016-Jun-17 14:33N 24°22' E 118°08'8 7.3
2016-Jun-17 13:32N 24°29' E 118°04'0 0.0
2016-Jun-17 12:32N 24°29' E 118°04'0 0.0
2016-Jun-17 11:32N 24°29' E 118°04'0 0.0
2016-Jun-17 10:32N 24°29' E 118°04'0 0.0
2016-Jun-17 09:32N 24°29' E 118°04'0 0.0
2016-Jun-17 08:32N 24°29' E 118°04'0 0.0
2016-Jun-17 07:07N 24°29' E 118°04'0 0.0
2016-Jun-17 06:32N 24°29' E 118°04'0 0.0
2016-Jun-17 05:32N 24°29' E 118°04'0 0.0
2016-Jun-17 04:31N 24°29' E 118°04'0 0.0
2016-Jun-17 03:31N 24°29' E 118°04'0 0.0
2016-Jun-17 02:26N 24°29' E 118°04'6 7.0
2016-Jun-17 01:33N 24°24' E 118°07'1716.5
2016-Jun-17 00:33N 24°11' E 118°18'1614.9
2016-Jun-16 23:29N 23°56' E 118°13'23317.7
2016-Jun-16 10:20N 22°13' E 114°26'1114.3
2016-Jun-16 09:33N 22°17' E 114°15'2 2.4
2016-Jun-16 08:33N 22°18' E 114°13'0 0.0
2016-Jun-16 07:33N 22°18' E 114°13'0 0.0
2016-Jun-16 06:33N 22°18' E 114°13'0 0.0
2016-Jun-16 05:33N 22°18' E 114°13'0 0.0
2016-Jun-16 04:33N 22°18' E 114°13'0 0.0
2016-Jun-16 01:33N 22°18' E 114°13'0 0.0
2016-Jun-16 00:33N 22°18' E 114°13'2 2.0
2016-Jun-15 23:33N 22°17' E 114°14'  

Dump ship's entire track history